Skip Navigation Links Skip Navigation Links

Current Weather

Jasper County, Rensselaer, Ind.

For information only: do not use for flight planning or navigation.
Latest weather
Observation time Friday, December 3, 2021 5:35 AM EST
Local time Friday, December 3, 2021 5:52 AM EST
Flight conditions Visual Meteorological Conditions
Winds
Wind direction East (90°)
Wind speed 5 mph
Visibility 10 mi.
Sky condition
Ceiling unlimited
Sky clear
Temperature 34°F
Dewpoint 30°F
Altimeter 30.03 in.Hg
Derived measurements
Relative humidity 86%
Wind chill 30°F
Density altitude -1048 ft.
Remarks
Fully automated report.
Automated weather observing station with precipitation discriminator.
METAR KRZL 031035Z AUTO 09004KT 10SM CLR 01/M01 A3003 RMK AO2

Settings

Location code

InnerDrive.Weather 4.0.6770.0 Release CLR 4.0.30319.42000
Copyright ©2018 Inner Drive Technology. All rights reserved. Portions Copyright ©1986-2018 David Braverman.

Find weather

Site navigation


Skip Navigation Links

Place info

Page info

PayPal - The safer, easier way to pay online!

Return home.

Copyright ©2021 Inner Drive Technology. Purveyors of fine, hand-crafted computer software. Page printed 2021-12-03T10:52:38 UTC.